(°C)
(°C)
-4°
-5°
-5°
-5°
-4°
-3°
-2°
З
З
З
З
З
З
З
(km/h)
21-42
21-42
22-43
22-43
23-43
24-43
24-43
(mm)
0
0
0
0
0
0
0
(%)
0
0
0
0
0
0
0

Издигане на слънцето

/ -16.6°
sun-icon
UV 3
07:27
17:40
Пълнолуние (173°)
17:22
07:30

METAR за Южна Каролина (KCUB)

Час Условия Температура/
Точка на оросяване
Вятър Видимост Времето Облаци Налягане Промяна Сурови
VFR 3.9°C / -1.1°C 260º 14kt Gust 24kt >10km - Clear 1003 - KCUB 171053Z AUTO 26014G24KT 10SM CLR 04/M01 A2964 RMK AO2 SLP037 T00391011
VFR 3.9°C / -0.6°C 260º 16kt Gust 21kt >10km - Scattered Clouds 2600ft - KCUB 171026Z AUTO 26016G21KT 10SM SCT026 04/M01 A2963 RMK AO2 T00391006
MVFR 3.9°C / -0.6°C 270º 14kt Gust 22kt >10km - Overcast 2600ft 1003 - KCUB 170953Z AUTO 27014G22KT 10SM OVC026 04/M01 A2962 RMK AO2 SLP032 T00391006
MVFR 3.9°C / -0.6°C 270º 15kt Gust 22kt >10km - Broken Clouds 2600ft - KCUB 170939Z AUTO 27015G22KT 10SM BKN026 04/M01 A2962 RMK AO2 T00391006
VFR 3.9°C / -0.6°C 260º 15kt Gust 23kt >10km - Scattered Clouds 2600ft - KCUB 170917Z AUTO 26015G23KT 10SM SCT026 04/M01 A2961 RMK AO2 T00391006
MVFR 3.9°C / -0.6°C 270º 14kt Gust 20kt >10km - Broken Clouds 2600ft 1002 - KCUB 170853Z AUTO 27014G20KT 10SM BKN026 04/M01 A2961 RMK AO2 PK WND 26029/0822 SLP028 T00391006 53011
MVFR 4.4°C / 0.6°C 260º 17kt Gust 27kt >10km - Overcast 2700ft 1002 - KCUB 170753Z AUTO 26017G27KT 10SM OVC027 04/01 A2959 RMK AO2 PK WND 27027/0744 SLP020 T00440006
MVFR 4.4°C / 0.6°C 250º 11kt Gust 26kt >10km - Overcast 2800ft 1001 - KCUB 170653Z AUTO 25011G26KT 10SM OVC028 04/01 A2957 RMK AO2 PK WND 26026/0644 SLP015 T00440006
MVFR 3.9°C / 1.1°C 250º 11kt >10km - Overcast 1800ft 1001 - KCUB 170553Z AUTO 25011KT 10SM OVC018 04/01 A2958 RMK AO2 SLP016 60004 T00390011 10056 20028 55007
MVFR 3.3°C / 1.1°C 250º 11kt Gust 17kt >10km - Overcast 1900ft 1001 - KCUB 170453Z AUTO 25011G17KT 10SM OVC019 03/01 A2958 RMK AO2 SLP015 T00330011 400560006
MVFR 3.3°C / 1.1°C 240º 8kt >10km - Broken Clouds 1500ft
Overcast 2100ft
- KCUB 170411Z AUTO 24008KT 10SM BKN015 OVC021 03/01 A2959 RMK AO2 T00330011
MVFR 2.8°C / 1.1°C 230º 9kt >10km 0.13mm precipitation Broken Clouds 1300ft
Overcast 2200ft
1002 - KCUB 170353Z AUTO 23009KT 10SM BKN013 OVC022 03/01 A2959 RMK AO2 UPB01E11 SLP021 P0000 T00280011
MVFR 2.8°C / 1.1°C 240º 10kt Gust 21kt >10km 0.13mm precipitation Broken Clouds 1400ft
Broken Clouds 2400ft
Overcast 3100ft
1002 - KCUB 170253Z AUTO 24010G21KT 7SM BKN014 BKN024 OVC031 03/01 A2960 RMK AO2 RAE14UPB14E16B35E45 SLP023 P0000 60004 T00280011 51009
MVFR 3.3°C / 1.1°C 240º 11kt Gust 22kt >10km Light Rain 0.51mm precipitation Scattered Clouds 1500ft
Scattered Clouds 2000ft
Overcast 2800ft
1002 - KCUB 170153Z AUTO 24011G22KT 9SM -RA SCT015 SCT020 OVC028 03/01 A2959 RMK AO2 SLP020 P0002 T00330011
MVFR 4.4°C / 2.2°C 250º 11kt Gust 17kt 9700m Light Rain Mist 0.25mm precipitation Broken Clouds 1400ft
Broken Clouds 2100ft
Overcast 2600ft
- KCUB 170115Z AUTO 25011G17KT 6SM -RA BR BKN014 BKN021 OVC026 04/02 A2958 RMK AO2 P0001 T00440022
MVFR 4.4°C / 2.2°C 260º 14kt Gust 27kt 4800m Light Rain Mist 0.13mm precipitation Few Clouds 1000ft
Broken Clouds 1900ft
Overcast 2500ft
- KCUB 170058Z AUTO 26014G27KT 3SM -RA BR FEW010 BKN019 OVC025 04/02 A2957 RMK AO2 P0000 T00440022
IFR 5°C / 3°C 260º 12kt Gust 20kt 3200m Rain Mist 0.51mm precipitation Few Clouds 1000ft
Broken Clouds 1400ft
Overcast 1900ft
- KCUB 170051Z AUTO 26012G20KT 2SM RA BR FEW010 BKN014 OVC019 05/03 A2957 RMK AO2 P0002
MVFR 5°C / 3.3°C 220º 5kt 8000m Light Rain Mist 0.13mm precipitation Few Clouds 1100ft
Broken Clouds 2400ft
Overcast 4000ft
- KCUB 170030Z AUTO 22005KT 5SM -RA BR FEW011 BKN024 OVC040 05/03 A2956 RMK AO2 P0000 T00500033
MVFR 4.4°C / 3.3°C 270º 3kt 4800m Light Rain Mist 0.13mm precipitation Scattered Clouds 1100ft
Broken Clouds 2400ft
Overcast 4800ft
- KCUB 170018Z AUTO 27003KT 3SM -RA BR SCT011 BKN024 OVC048 04/03 A2956 RMK AO2 P0000 T00440033
IFR 4.4°C / 3.3°C variable 0kt 3200m Light Rain Mist 0.13mm precipitation Few Clouds 400ft
Broken Clouds 2600ft
Overcast 3400ft
- KCUB 162357Z AUTO 00000KT 2SM -RA BR FEW004 BKN026 OVC034 04/03 A2955 RMK AO2 P0000 T00440033
IFR 4.4°C / 3.3°C variable 0kt 3200m Light Rain Mist 0.13mm precipitation Few Clouds 1900ft
Broken Clouds 2700ft
Overcast 3600ft
- KCUB 162341Z AUTO 00000KT 2SM -RA BR FEW019 BKN027 OVC036 04/03 A2955 RMK AO2 RAB21 P0000 T00440033
MVFR 4.4°C / 2.8°C variable 0kt 8000m Mist Vertical Visibility of 0ft.
Broken Clouds 4800ft
Overcast 8500ft
1000 - KCUB 162253Z AUTO 00000KT 5SM BR FEW012 BKN048 OVC085 04/03 A2955 RMK AO2 SLP006 T00440028
VFR 4.4°C / 2.8°C variable 0kt >10km - Scattered Clouds 1300ft
Broken Clouds 6000ft
Broken Clouds 8500ft
- KCUB 162233Z AUTO 00000KT 7SM SCT013 BKN060 BKN085 04/03 A2955 RMK AO2 T00440028
MVFR 5°C / 2.8°C variable 0kt >10km - Overcast 1500ft 1000 - KCUB 162153Z AUTO 00000KT 8SM OVC015 05/03 A2955 RMK AO2 SLP007 T00500028

VFR

3.9°C / -1.1°C

[Още]
Вятър 260º 14kt Gust 24kt
Видимост >10km
Времето -
Облаци Clear
Налягане 1003
Промяна -
Сурови KCUB 171053Z AUTO 26014G24KT 10SM CLR 04/M01 A2964 RMK AO2 SLP037 T00391011

VFR

3.9°C / -0.6°C

[Още]
Вятър 260º 16kt Gust 21kt
Видимост >10km
Времето -
Облаци Scattered Clouds 2600ft
Налягане
Промяна -
Сурови KCUB 171026Z AUTO 26016G21KT 10SM SCT026 04/M01 A2963 RMK AO2 T00391006

MVFR

3.9°C / -0.6°C

[Още]
Вятър 270º 14kt Gust 22kt
Видимост >10km
Времето -
Облаци Overcast 2600ft
Налягане 1003
Промяна -
Сурови KCUB 170953Z AUTO 27014G22KT 10SM OVC026 04/M01 A2962 RMK AO2 SLP032 T00391006

MVFR

3.9°C / -0.6°C

[Още]
Вятър 270º 15kt Gust 22kt
Видимост >10km
Времето -
Облаци Broken Clouds 2600ft
Налягане
Промяна -
Сурови KCUB 170939Z AUTO 27015G22KT 10SM BKN026 04/M01 A2962 RMK AO2 T00391006

VFR

3.9°C / -0.6°C

[Още]
Вятър 260º 15kt Gust 23kt
Видимост >10km
Времето -
Облаци Scattered Clouds 2600ft
Налягане
Промяна -
Сурови KCUB 170917Z AUTO 26015G23KT 10SM SCT026 04/M01 A2961 RMK AO2 T00391006

MVFR

3.9°C / -0.6°C

[Още]
Вятър 270º 14kt Gust 20kt
Видимост >10km
Времето -
Облаци Broken Clouds 2600ft
Налягане 1002
Промяна -
Сурови KCUB 170853Z AUTO 27014G20KT 10SM BKN026 04/M01 A2961 RMK AO2 PK WND 26029/0822 SLP028 T00391006 53011

MVFR

4.4°C / 0.6°C

[Още]
Вятър 260º 17kt Gust 27kt
Видимост >10km
Времето -
Облаци Overcast 2700ft
Налягане 1002
Промяна -
Сурови KCUB 170753Z AUTO 26017G27KT 10SM OVC027 04/01 A2959 RMK AO2 PK WND 27027/0744 SLP020 T00440006

MVFR

4.4°C / 0.6°C

[Още]
Вятър 250º 11kt Gust 26kt
Видимост >10km
Времето -
Облаци Overcast 2800ft
Налягане 1001
Промяна -
Сурови KCUB 170653Z AUTO 25011G26KT 10SM OVC028 04/01 A2957 RMK AO2 PK WND 26026/0644 SLP015 T00440006

MVFR

3.9°C / 1.1°C

[Още]
Вятър 250º 11kt
Видимост >10km
Времето -
Облаци Overcast 1800ft
Налягане 1001
Промяна -
Сурови KCUB 170553Z AUTO 25011KT 10SM OVC018 04/01 A2958 RMK AO2 SLP016 60004 T00390011 10056 20028 55007

MVFR

3.3°C / 1.1°C

[Още]
Вятър 250º 11kt Gust 17kt
Видимост >10km
Времето -
Облаци Overcast 1900ft
Налягане 1001
Промяна -
Сурови KCUB 170453Z AUTO 25011G17KT 10SM OVC019 03/01 A2958 RMK AO2 SLP015 T00330011 400560006

MVFR

3.3°C / 1.1°C

[Още]
Вятър 240º 8kt
Видимост >10km
Времето -
Облаци Broken Clouds 1500ft
Overcast 2100ft
Налягане
Промяна -
Сурови KCUB 170411Z AUTO 24008KT 10SM BKN015 OVC021 03/01 A2959 RMK AO2 T00330011

MVFR

2.8°C / 1.1°C

[Още]
Вятър 230º 9kt
Видимост >10km
Времето 0.13mm precipitation
Облаци Broken Clouds 1300ft
Overcast 2200ft
Налягане 1002
Промяна -
Сурови KCUB 170353Z AUTO 23009KT 10SM BKN013 OVC022 03/01 A2959 RMK AO2 UPB01E11 SLP021 P0000 T00280011

MVFR

2.8°C / 1.1°C

[Още]
Вятър 240º 10kt Gust 21kt
Видимост >10km
Времето 0.13mm precipitation
Облаци Broken Clouds 1400ft
Broken Clouds 2400ft
Overcast 3100ft
Налягане 1002
Промяна -
Сурови KCUB 170253Z AUTO 24010G21KT 7SM BKN014 BKN024 OVC031 03/01 A2960 RMK AO2 RAE14UPB14E16B35E45 SLP023 P0000 60004 T00280011 51009

MVFR

3.3°C / 1.1°C

[Още]
Вятър 240º 11kt Gust 22kt
Видимост >10km
Времето Light Rain 0.51mm precipitation
Облаци Scattered Clouds 1500ft
Scattered Clouds 2000ft
Overcast 2800ft
Налягане 1002
Промяна -
Сурови KCUB 170153Z AUTO 24011G22KT 9SM -RA SCT015 SCT020 OVC028 03/01 A2959 RMK AO2 SLP020 P0002 T00330011

MVFR

4.4°C / 2.2°C

[Още]
Вятър 250º 11kt Gust 17kt
Видимост 9700m
Времето Light Rain Mist 0.25mm precipitation
Облаци Broken Clouds 1400ft
Broken Clouds 2100ft
Overcast 2600ft
Налягане
Промяна -
Сурови KCUB 170115Z AUTO 25011G17KT 6SM -RA BR BKN014 BKN021 OVC026 04/02 A2958 RMK AO2 P0001 T00440022

MVFR

4.4°C / 2.2°C

[Още]
Вятър 260º 14kt Gust 27kt
Видимост 4800m
Времето Light Rain Mist 0.13mm precipitation
Облаци Few Clouds 1000ft
Broken Clouds 1900ft
Overcast 2500ft
Налягане
Промяна -
Сурови KCUB 170058Z AUTO 26014G27KT 3SM -RA BR FEW010 BKN019 OVC025 04/02 A2957 RMK AO2 P0000 T00440022

IFR

5°C / 3°C

[Още]
Вятър 260º 12kt Gust 20kt
Видимост 3200m
Времето Rain Mist 0.51mm precipitation
Облаци Few Clouds 1000ft
Broken Clouds 1400ft
Overcast 1900ft
Налягане
Промяна -
Сурови KCUB 170051Z AUTO 26012G20KT 2SM RA BR FEW010 BKN014 OVC019 05/03 A2957 RMK AO2 P0002

MVFR

5°C / 3.3°C

[Още]
Вятър 220º 5kt
Видимост 8000m
Времето Light Rain Mist 0.13mm precipitation
Облаци Few Clouds 1100ft
Broken Clouds 2400ft
Overcast 4000ft
Налягане
Промяна -
Сурови KCUB 170030Z AUTO 22005KT 5SM -RA BR FEW011 BKN024 OVC040 05/03 A2956 RMK AO2 P0000 T00500033

MVFR

4.4°C / 3.3°C

[Още]
Вятър 270º 3kt
Видимост 4800m
Времето Light Rain Mist 0.13mm precipitation
Облаци Scattered Clouds 1100ft
Broken Clouds 2400ft
Overcast 4800ft
Налягане
Промяна -
Сурови KCUB 170018Z AUTO 27003KT 3SM -RA BR SCT011 BKN024 OVC048 04/03 A2956 RMK AO2 P0000 T00440033

IFR

4.4°C / 3.3°C

[Още]
Вятър variable 0kt
Видимост 3200m
Времето Light Rain Mist 0.13mm precipitation
Облаци Few Clouds 400ft
Broken Clouds 2600ft
Overcast 3400ft
Налягане
Промяна -
Сурови KCUB 162357Z AUTO 00000KT 2SM -RA BR FEW004 BKN026 OVC034 04/03 A2955 RMK AO2 P0000 T00440033

IFR

4.4°C / 3.3°C

[Още]
Вятър variable 0kt
Видимост 3200m
Времето Light Rain Mist 0.13mm precipitation
Облаци Few Clouds 1900ft
Broken Clouds 2700ft
Overcast 3600ft
Налягане
Промяна -
Сурови KCUB 162341Z AUTO 00000KT 2SM -RA BR FEW019 BKN027 OVC036 04/03 A2955 RMK AO2 RAB21 P0000 T00440033

MVFR

4.4°C / 2.8°C

[Още]
Вятър variable 0kt
Видимост 8000m
Времето Mist
Облаци Vertical Visibility of 0ft.
Broken Clouds 4800ft
Overcast 8500ft
Налягане 1000
Промяна -
Сурови KCUB 162253Z AUTO 00000KT 5SM BR FEW012 BKN048 OVC085 04/03 A2955 RMK AO2 SLP006 T00440028

VFR

4.4°C / 2.8°C

[Още]
Вятър variable 0kt
Видимост >10km
Времето -
Облаци Scattered Clouds 1300ft
Broken Clouds 6000ft
Broken Clouds 8500ft
Налягане
Промяна -
Сурови KCUB 162233Z AUTO 00000KT 7SM SCT013 BKN060 BKN085 04/03 A2955 RMK AO2 T00440028

MVFR

5°C / 2.8°C

[Още]
Вятър variable 0kt
Видимост >10km
Времето -
Облаци Overcast 1500ft
Налягане 1000
Промяна -
Сурови KCUB 162153Z AUTO 00000KT 8SM OVC015 05/03 A2955 RMK AO2 SLP007 T00500028

TAF за Южна Каролина (KCUB)

From till


From till Wind 250º 15kt. Gust 25kt. Visibility 10km or more. Overcast 2500ft.
From till Wind 260º 15kt. Gust 25kt. Visibility 10km or more. Scattered Clouds 2500ft.

Сурови: KCUB 170836Z 1709/1806 25015G25KT P6SM OVC025 FM171100 26015G25KT P6SM SCT025

Радар и валежи в момента за Южна Каролина

Ситен дъжд
Лек
Умерен
Тежък
Много тежък
Аве

Маркерът за локация обозначава Южна Каролина. Анимацията показва Радара за валежи за последния час, както и прогноза за 1h. Дъждът или лекият сняг може да са невидими за радара. Интензивността на валежите е обозначена с цветни кодове, вариращи от светлосиньо до оранжево.

Актуални сателитни изображения за Южна Каролина, САЩ

Маркерът за локация е поставен върху Южна Каролина. [Още]

Сателитното изображение в реално време съчетава видимата светлина през деня с инфрачервеното лъчение през нощта. През нощта изображението не е тъмно, тъй като инфрачервеното лъчение може да открива температурни разлики. За съжаление ниските облаци и мъглата са трудни за разграничаване от температурите на земята и затова могат да бъдат почти невидими през нощта. Сателитните изображения на Meteosat за Европа се актуализират в реално време на всеки 5 минути. Изображенията GOES-16/GOES-17 (Северна и Южна Америка) и Химавари (Азия) се актуализират на всеки 10 минути.